Time;durP1;ratioP1;P1;durP2;ratioP2;P2;SDS_P1;SDS_P2;PMS_P1;PMS_P2;Temp;Humidity;BMP_temperature;BMP_pressure;BME280_temperature;BME280_humidity;BME280_pressure;Samples;Min_cycle;Max_cycle;Signal;HPM_P1;HPM_P2
2022/09/14 00:00:09;;;;;;;;;;;19.70;53.20;;;17.77;58.25;100375.78;12260535;19;19922;-86
2022/09/14 00:04:16;;;;;;;;;;;19.70;53.20;;;17.83;57.97;100391.13;12255225;19;19919;-86
2022/09/14 00:08:18;;;;;;;;;;;19.60;53.10;;;17.72;58.13;100383.31;12259154;19;20351;-86
2022/09/14 00:12:20;;;;;;;;;;;19.60;53.00;;;17.69;57.95;100385.25;12255557;19;19926;-87
2022/09/14 00:16:25;;;;;;;;;;;19.80;53.10;;;17.52;57.99;100367.44;12257520;19;19911;-86
2022/09/14 00:20:27;;;;;;;;;;;19.60;53.10;;;17.62;58.05;100383.28;12253334;19;19931;-86
2022/09/14 00:24:33;;;;;;;;;;;19.50;53.20;;;17.54;58.14;100365.50;12256399;19;20318;-87
2022/09/14 00:28:40;;;;;;;;;;;19.50;53.20;;;17.52;57.98;100356.88;12254706;19;19918;-86
2022/09/14 00:32:41;;;;;;;;;;;19.40;53.20;;;17.48;58.03;100364.25;12250806;19;20345;-86
2022/09/14 00:36:46;;;;;;;;;;;19.50;53.20;;;17.48;58.22;100373.97;12254477;19;19931;-86
2022/09/14 00:40:58;;;;;;;;;;;19.30;53.10;;;17.41;58.04;100355.19;12252345;19;19923;-86
2022/09/14 00:45:13;;;;;;;;;;;19.30;53.20;;;17.41;58.21;100355.19;12254570;19;20315;-86
2022/09/14 00:49:16;;;;;;;;;;;19.30;53.10;;;17.37;58.09;100353.81;12253179;19;19914;-86
2022/09/14 00:53:18;;;;;;;;;;;19.20;53.10;;;16.97;58.23;100285.31;12250924;19;19919;-85
2022/09/14 00:57:20;;;;;;;;;;;19.40;53.20;;;17.15;57.99;100328.53;12251935;19;19927;-88
2022/09/14 01:01:23;;;;;;;;;;;19.50;53.20;;;17.16;58.15;100334.63;12249890;19;19975;-86
2022/09/14 01:05:37;;;;;;;;;;;19.10;53.00;;;17.10;58.26;100322.81;12250600;19;19915;-86
2022/09/14 01:09:50;;;;;;;;;;;19.10;53.00;;;17.01;58.09;100318.34;12248825;19;19947;-86
2022/09/14 01:14:03;;;;;;;;;;;19.00;53.10;;;17.14;58.32;100342.66;12247542;19;19919;-85
2022/09/14 01:18:13;;;;;;;;;;;19.30;53.60;;;16.66;58.38;100266.91;12250691;19;19971;-87
2022/09/14 01:22:24;;;;;;;;;;;19.00;53.20;;;17.00;58.20;100319.31;12249326;19;19998;-87
2022/09/14 01:26:55;;;;;;;;;;;18.90;53.20;;;17.09;58.39;100336.97;12251532;19;19915;-86
2022/09/14 01:31:00;;;;;;;;;;;18.90;53.20;;;17.03;58.38;100333.06;12247923;19;20341;-86
2022/09/14 01:35:14;;;;;;;;;;;18.80;53.10;;;16.92;58.31;100325.28;12255504;19;20323;-88
2022/09/14 01:39:19;;;;;;;;;;;18.90;53.20;;;16.48;58.29;100242.16;12255594;19;19925;-86
2022/09/14 01:43:39;;;;;;;;;;;18.80;53.20;;;16.87;58.25;100322.22;12251920;19;19999;-87
2022/09/14 01:48:02;;;;;;;;;;;18.80;53.20;;;16.88;58.42;100325.69;12250854;19;19919;-86
2022/09/14 01:52:07;;;;;;;;;;;18.80;53.20;;;16.84;58.34;100327.75;12249300;19;19936;-87
2022/09/14 01:56:19;;;;;;;;;;;18.70;53.20;;;16.75;58.24;100312.72;12252309;19;19935;-86
2022/09/14 02:00:21;;;;;;;;;;;18.70;53.20;;;16.88;58.32;100336.25;12251849;19;19964;-88
2022/09/14 02:04:40;;;;;;;;;;;18.70;53.30;;;16.84;58.30;100340.13;12249875;19;19926;-86
2022/09/14 02:08:42;;;;;;;;;;;18.60;53.20;;;16.70;58.44;100321.03;12248296;19;19978;-86
2022/09/14 02:12:43;;;;;;;;;;;18.60;53.30;;;16.70;58.31;100321.03;12247274;19;19922;-86
2022/09/14 02:16:45;;;;;;;;;;;18.60;53.20;;;16.67;58.18;100315.19;12249165;19;20292;-87
2022/09/14 02:20:57;;;;;;;;;;;18.80;53.30;;;16.64;58.17;100308.38;12248480;19;19919;-88
2022/09/14 02:24:58;;;;;;;;;;;18.60;53.20;;;16.30;58.17;100271.78;12248627;19;19923;-86
2022/09/14 02:29:00;;;;;;;;;;;18.50;53.20;;;16.52;58.19;100301.53;12247920;19;19929;-88
2022/09/14 02:33:21;;;;;;;;;;;18.40;53.10;;;16.55;58.38;100314.44;12246396;19;19970;-86
2022/09/14 02:37:50;;;;;;;;;;;18.50;53.20;;;16.48;58.56;100302.78;12249237;19;19918;-86
2022/09/14 02:42:16;;;;;;;;;;;18.50;53.20;;;16.00;58.34;100238.38;12245903;19;19925;-86
2022/09/14 02:46:50;;;;;;;;;;;18.40;53.20;;;16.47;58.51;100309.00;12245206;19;20334;-86
2022/09/14 02:51:02;;;;;;;;;;;18.30;53.20;;;16.35;58.55;100295.94;12245820;19;19923;-87
2022/09/14 02:55:11;;;;;;;;;;;18.30;53.20;;;16.33;58.44;100297.84;12245487;19;19974;-87
2022/09/14 02:59:12;;;;;;;;;;;18.30;53.20;;;15.73;58.22;100220.50;12246347;19;20262;-87
2022/09/14 03:03:16;;;;;;;;;;;18.30;53.20;;;16.21;58.53;100298.94;12242262;19;19986;-85
2022/09/14 03:07:17;;;;;;;;;;;18.20;53.10;;;15.79;58.31;100245.47;12246723;19;19927;-88
2022/09/14 03:11:19;;;;;;;;;;;18.10;53.00;;;15.94;58.37;100286.31;12242455;19;20265;-86
2022/09/14 03:15:20;;;;;;;;;;;18.10;53.00;;;15.78;58.74;100256.97;12244955;19;19915;-87
2022/09/14 03:19:22;;;;;;;;;;;18.00;53.10;;;15.93;58.58;100290.75;12245314;19;19915;-87
2022/09/14 03:23:23;;;;;;;;;;;18.40;53.40;;;15.70;58.51;100258.44;12244639;19;19942;-86
2022/09/14 03:27:25;;;;;;;;;;;17.90;53.20;;;15.92;58.49;100294.31;12247044;19;19970;-86
2022/09/14 03:31:27;;;;;;;;;;;18.30;53.40;;;15.96;58.72;100304.59;12241415;19;20315;-87
2022/09/14 03:35:30;;;;;;;;;;;17.90;53.40;;;15.61;58.42;100247.84;12254523;19;19919;-86
2022/09/14 03:39:31;;;;;;;;;;;17.90;53.40;;;15.67;58.70;100256.03;12252316;19;20330;-86
2022/09/14 03:43:33;;;;;;;;;;;18.10;53.60;;;16.03;58.76;100289.97;12248533;19;19906;-88
2022/09/14 03:47:35;;;;;;;;;;;17.90;53.50;;;15.67;58.49;100235.00;12251283;19;19927;-86
2022/09/14 03:51:36;;;;;;;;;;;17.90;53.60;;;16.02;58.76;100283.03;12246873;19;19919;-86
2022/09/14 03:55:39;;;;;;;;;;;17.90;53.60;;;16.10;58.57;100301.66;12250602;19;19939;-86
2022/09/14 03:59:41;;;;;;;;;;;18.10;53.60;;;16.04;58.72;100292.47;12259876;19;20288;-88
2022/09/14 04:03:43;;;;;;;;;;;18.10;53.60;;;15.79;58.60;100254.19;12254460;19;19943;-86
2022/09/14 04:07:45;;;;;;;;;;;17.90;53.50;;;15.94;58.50;100278.41;12256701;19;19922;-85
2022/09/14 04:11:46;;;;;;;;;;;18.20;53.60;;;16.03;58.62;100296.06;12253538;19;19930;-86
2022/09/14 04:15:56;;;;;;;;;;;18.10;53.50;;;15.90;58.44;100282.25;12257586;19;20346;-86
2022/09/14 04:19:57;;;;;;;;;;;17.90;53.30;;;15.76;58.54;100270.25;12252725;19;19915;-86
2022/09/14 04:23:59;;;;;;;;;;;17.90;53.30;;;15.84;58.66;100311.75;12250787;19;20347;-87
2022/09/14 04:28:01;;;;;;;;;;;18.20;53.30;;;15.65;58.53;100292.19;12256736;19;20321;-85
2022/09/14 04:32:02;;;;;;;;;;;17.80;53.20;;;15.70;58.53;100294.47;12250380;19;19938;-86
2022/09/14 04:36:12;;;;;;;;;;;17.70;53.20;;;15.65;58.63;100299.25;12258078;19;19923;-88
2022/09/14 04:40:13;;;;;;;;;;;17.60;53.10;;;15.31;58.59;100245.94;12257465;19;20302;-86
2022/09/14 04:44:15;;;;;;;;;;;17.60;53.20;;;15.22;58.68;100245.75;12249648;19;19929;-88
2022/09/14 04:48:16;;;;;;;;;;;17.50;53.20;;;15.25;58.85;100257.81;12255304;19;20379;-87
2022/09/14 04:52:18;;;;;;;;;;;17.50;53.20;;;15.46;58.53;100299.94;12251583;19;19926;-86
2022/09/14 04:56:23;;;;;;;;;;;17.70;53.40;;;15.40;58.71;100288.13;12254575;19;19935;-86
2022/09/14 05:00:24;;;;;;;;;;;17.30;53.20;;;15.34;58.62;100277.25;12254969;19;19922;-88
2022/09/14 05:04:26;;;;;;;;;;;17.30;53.20;;;14.83;58.75;100210.41;12255326;19;19915;-88
2022/09/14 05:08:27;;;;;;;;;;;17.30;53.20;;;15.16;58.83;100262.03;12253275;19;19975;-87
2022/09/14 05:12:29;;;;;;;;;;;17.30;53.30;;;15.20;58.68;100271.38;12253560;19;19918;-87
2022/09/14 05:16:36;;;;;;;;;;;17.20;53.30;;;15.12;58.77;100252.75;12254148;19;19923;-87
2022/09/14 05:20:37;;;;;;;;;;;17.10;53.30;;;14.68;58.76;100194.09;12252065;19;19954;-87
2022/09/14 05:24:39;;;;;;;;;;;17.30;53.50;;;15.08;58.75;100256.56;12255563;19;19925;-87
2022/09/14 05:28:40;;;;;;;;;;;17.00;53.30;;;15.09;58.70;100265.28;12253367;19;20366;-87
2022/09/14 05:32:42;;;;;;;;;;;17.00;53.40;;;15.03;59.06;100259.56;12256946;19;19919;-87
2022/09/14 05:36:44;;;;;;;;;;;17.00;53.60;;;15.15;59.03;100270.03;12256162;19;20260;-86
2022/09/14 05:40:45;;;;;;;;;;;17.00;53.80;;;15.08;59.22;100239.97;12254460;19;19922;-87
2022/09/14 05:44:47;;;;;;;;;;;17.50;54.10;;;15.19;59.01;100253.91;12256707;19;20256;-86
2022/09/14 05:48:50;;;;;;;;;;;17.10;54.10;;;15.37;59.19;100275.22;12255181;19;20366;-86
2022/09/14 05:52:51;;;;;;;;;;;17.20;54.20;;;15.42;59.13;100269.59;12249324;19;19957;-85
2022/09/14 05:56:53;;;;;;;;;;;17.30;54.20;;;15.37;59.00;100254.19;12250549;19;19947;-87
2022/09/14 06:00:55;;;;;;;;;;;17.40;54.30;;;15.59;59.02;100276.09;12251216;19;19930;-87
2022/09/14 06:04:56;;;;;;;;;;;17.40;54.30;;;15.33;58.93;100221.19;12250758;19;20296;-86
2022/09/14 06:08:58;;;;;;;;;;;17.40;54.30;;;15.72;59.13;100266.22;12251260;19;19918;-86
2022/09/14 06:12:59;;;;;;;;;;;17.50;54.40;;;15.61;59.21;100232.06;12248526;19;20253;-86
2022/09/14 06:17:01;;;;;;;;;;;17.90;54.50;;;15.76;59.20;100251.00;12251608;19;19939;-87
2022/09/14 06:21:04;;;;;;;;;;;17.70;54.40;;;15.89;59.17;100260.34;12245472;19;20014;-89
2022/09/14 06:25:05;;;;;;;;;;;17.70;54.40;;;15.76;59.16;100220.22;12251892;19;19907;-86
2022/09/14 06:29:07;;;;;;;;;;;17.80;54.40;;;16.00;59.05;100261.25;12248793;19;19926;-85
2022/09/14 06:33:08;;;;;;;;;;;17.70;54.40;;;16.03;59.13;100253.09;12247028;19;19930;-87
2022/09/14 06:37:12;;;;;;;;;;;18.10;54.60;;;15.52;59.25;100162.56;12251372;19;19918;-87
2022/09/14 06:41:19;;;;;;;;;;;17.90;54.40;;;15.76;59.07;100193.09;12249996;19;19911;-86
2022/09/14 06:45:21;;;;;;;;;;;17.90;54.40;;;15.97;59.23;100212.31;12250530;19;19915;-88
2022/09/14 06:49:23;;;;;;;;;;;18.10;54.50;;;16.23;58.99;100249.56;12235183;19;20354;-87
2022/09/14 06:53:24;;;;;;;;;;;18.00;54.40;;;16.20;59.13;100239.28;12241572;19;20609;-86
2022/09/14 06:57:26;;;;;;;;;;;18.10;54.50;;;16.03;59.06;100203.88;12244606;19;19923;-89
2022/09/14 07:01:28;;;;;;;;;;;18.30;54.60;;;16.09;59.01;100203.34;12245826;19;19930;-86
2022/09/14 07:05:30;;;;;;;;;;;18.10;54.70;;;16.36;59.32;100234.38;12244373;19;19926;-88
2022/09/14 07:09:31;;;;;;;;;;;18.30;54.70;;;16.22;59.43;100211.00;12246053;19;19919;-87
2022/09/14 07:13:33;;;;;;;;;;;18.30;54.70;;;16.15;59.24;100178.28;12243039;19;19914;-88
2022/09/14 07:17:35;;;;;;;;;;;18.40;54.70;;;15.90;59.23;100119.84;12246096;19;20263;-87
2022/09/14 07:21:36;;;;;;;;;;;18.70;54.80;;;16.41;59.32;100188.31;12243666;19;19931;-87
2022/09/14 07:25:38;;;;;;;;;;;18.50;54.70;;;16.08;59.18;100119.19;12246390;19;19940;-88
2022/09/14 07:29:39;;;;;;;;;;;18.70;54.80;;;16.34;59.41;100151.97;12251290;19;20022;-87
2022/09/14 07:33:41;;;;;;;;;;;19.00;54.80;;;16.95;58.90;100239.78;12255477;19;19958;-87
2022/09/14 07:37:42;;;;;;;;;;;19.00;54.80;;;16.67;59.14;100184.19;12256403;19;19930;-86
2022/09/14 07:41:44;;;;;;;;;;;18.90;54.80;;;17.21;59.35;100261.16;12256389;19;20273;-87
2022/09/14 07:45:45;;;;;;;;;;;19.00;54.70;;;17.19;59.46;100242.81;12258581;19;20306;-87
2022/09/14 07:49:47;;;;;;;;;;;19.00;54.70;;;16.74;59.33;100148.41;12258105;19;20271;-86
2022/09/14 07:53:49;;;;;;;;;;;19.10;54.70;;;17.46;59.09;100251.84;12254792;19;19922;-86
2022/09/14 07:57:50;;;;;;;;;;;19.30;54.70;;;17.12;59.22;100183.69;12258839;19;19915;-86
2022/09/14 08:01:52;;;;;;;;;;;19.50;54.80;;;17.58;59.41;100236.66;12255564;19;19915;-88
2022/09/14 08:06:00;;;;;;;;;;;19.40;54.80;;;17.77;59.67;100235.78;12259079;19;19929;-86
2022/09/14 08:10:02;;;;;;;;;;;19.60;54.90;;;17.68;59.24;100196.06;12252139;19;19979;-88
2022/09/14 08:14:05;;;;;;;;;;;19.70;54.90;;;18.21;59.66;100252.78;12249767;19;19919;-88
2022/09/14 08:18:07;;;;;;;;;;;20.10;54.90;;;18.40;59.27;100259.78;12255594;19;19918;-87
2022/09/14 08:22:08;;;;;;;;;;;20.00;54.80;;;18.52;59.41;100247.19;12254859;19;20549;-88
2022/09/14 08:26:12;;;;;;;;;;;20.50;55.00;;;18.68;59.51;100251.84;12255254;19;19925;-87
2022/09/14 08:30:13;;;;;;;;;;;20.30;54.70;;;18.82;59.13;100250.53;12254001;19;19933;-87
2022/09/14 08:34:15;;;;;;;;;;;20.50;54.70;;;18.82;59.44;100232.00;12240549;19;19918;-87
2022/09/14 08:38:16;;;;;;;;;;;20.60;54.50;;;19.07;59.11;100255.09;12255980;19;19918;-86
2022/09/14 08:42:21;;;;;;;;;;;20.80;54.40;;;19.10;59.15;100241.56;12253276;19;20275;-86
2022/09/14 08:46:34;;;;;;;;;;;20.90;54.40;;;18.91;59.28;100181.66;12257752;19;19974;-86
2022/09/14 08:50:36;;;;;;;;;;;21.00;54.30;;;19.10;59.05;100195.72;12258246;19;20360;-87
2022/09/14 08:54:38;;;;;;;;;;;21.10;54.00;;;19.26;58.95;100195.84;12262113;19;19935;-86
2022/09/14 08:58:48;;;;;;;;;;;21.30;54.10;;;19.75;59.20;100246.53;12261411;19;19922;-86
2022/09/14 09:03:08;;;;;;;;;;;21.40;54.20;;;19.96;59.29;100240.88;12258246;19;20338;-87
2022/09/14 09:07:40;;;;;;;;;;;21.60;54.20;;;20.06;59.14;100225.69;12259731;19;19938;-87
2022/09/14 09:11:45;;;;;;;;;;;22.00;54.20;;;20.17;59.29;100221.94;12254673;19;19978;-86
2022/09/14 09:15:53;;;;;;;;;;;21.90;53.50;;;20.19;58.96;100211.97;12260112;19;19915;-87
2022/09/14 09:20:08;;;;;;;;;;;22.00;53.30;;;20.20;58.79;100212.81;12258569;19;19915;-87
2022/09/14 09:24:36;;;;;;;;;;;22.00;53.40;;;20.26;58.33;100218.31;12255454;19;20257;-86
2022/09/14 09:28:45;;;;;;;;;;;22.10;53.40;;;20.21;58.47;100211.81;12263313;19;19924;-85
2022/09/14 09:32:46;;;;;;;;;;;22.10;53.10;;;20.16;58.68;100193.75;12263226;19;20556;-86
2022/09/14 09:37:05;;;;;;;;;;;22.10;52.90;;;20.25;58.15;100211.34;12256967;19;19947;-85
2022/09/14 09:41:14;;;;;;;;;;;22.20;52.70;;;20.20;58.45;100202.19;12250894;19;19923;-86
2022/09/14 09:45:16;;;;;;;;;;;22.10;52.80;;;20.24;58.51;100220.28;12256525;19;20246;-86
2022/09/14 09:49:38;;;;;;;;;;;22.10;52.40;;;20.22;58.54;100208.19;12253359;19;19931;-85
2022/09/14 09:53:49;;;;;;;;;;;22.10;52.20;;;19.83;58.62;100153.84;12253333;19;19990;-85
2022/09/14 09:57:52;;;;;;;;;;;22.10;52.30;;;20.25;58.35;100207.84;12255912;19;19919;-86
2022/09/14 10:02:21;;;;;;;;;;;22.10;52.30;;;20.26;58.59;100213.00;12253239;19;19919;-85
2022/09/14 10:06:22;;;;;;;;;;;22.10;52.20;;;20.10;58.35;100179.31;12254486;19;19923;-87
2022/09/14 10:10:33;;;;;;;;;;;22.10;52.40;;;20.36;58.33;100204.06;12251979;19;20363;-86
2022/09/14 10:14:36;;;;;;;;;;;22.10;52.40;;;20.05;58.26;100146.31;12254634;19;19931;-86
2022/09/14 10:18:48;;;;;;;;;;;22.10;52.30;;;20.37;58.33;100197.81;12252647;19;19930;-86
2022/09/14 10:22:50;;;;;;;;;;;22.10;52.20;;;20.40;58.08;100192.16;12250549;19;19935;-85
2022/09/14 10:26:51;;;;;;;;;;;22.20;52.00;;;19.98;58.02;100114.34;12254357;19;19923;-85
2022/09/14 10:31:11;;;;;;;;;;;22.30;52.10;;;20.52;57.81;100196.16;12252235;19;19923;-85
2022/09/14 10:35:14;;;;;;;;;;;22.30;52.00;;;20.25;58.23;100152.16;12253215;19;19933;-85
2022/09/14 10:39:30;;;;;;;;;;;22.30;52.00;;;20.57;57.86;100201.84;12256628;19;20297;-85
2022/09/14 10:43:56;;;;;;;;;;;22.30;51.90;;;20.60;57.83;100198.03;12251583;19;19922;-85
2022/09/14 10:48:16;;;;;;;;;;;22.40;51.90;;;20.63;57.84;100189.75;12240727;19;19943;-87
2022/09/14 10:52:17;;;;;;;;;;;22.40;52.00;;;20.69;58.03;100184.63;12239065;19;19926;-86
2022/09/14 10:56:23;;;;;;;;;;;22.40;52.00;;;20.71;57.94;100180.00;12244830;19;19915;-86
2022/09/14 11:00:25;;;;;;;;;;;22.70;51.80;;;20.75;57.94;100165.41;12240421;19;19923;-86
2022/09/14 11:04:45;;;;;;;;;;;22.60;51.80;;;20.89;57.99;100173.69;12239988;19;19936;-86
2022/09/14 11:08:54;;;;;;;;;;;22.60;51.90;;;20.96;57.74;100177.38;12241753;19;19934;-86
2022/09/14 11:13:33;;;;;;;;;;;22.70;51.70;;;20.94;57.65;100168.72;12240428;19;19923;-85
2022/09/14 11:18:01;;;;;;;;;;;22.70;51.80;;;21.13;57.55;100186.16;12240888;19;19944;-86
2022/09/14 11:22:42;;;;;;;;;;;22.80;51.80;;;21.21;57.57;100192.28;12246137;19;19922;-86
2022/09/14 11:27:05;;;;;;;;;;;22.90;51.00;;;21.17;57.60;100184.81;12249620;19;19911;-86
2022/09/14 11:31:31;;;;;;;;;;;22.90;50.80;;;21.19;57.43;100166.88;12246671;19;19926;-86
2022/09/14 11:35:45;;;;;;;;;;;23.00;51.30;;;21.20;57.20;100161.44;12246827;19;19919;-85
2022/09/14 11:39:57;;;;;;;;;;;23.00;51.50;;;21.19;56.86;100167.72;12248316;19;19937;-85
2022/09/14 11:44:04;;;;;;;;;;;23.10;51.40;;;21.17;57.11;100169.72;12241136;19;19938;-87
2022/09/14 11:48:26;;;;;;;;;;;23.00;51.00;;;21.26;57.07;100175.03;12244208;19;19925;-87
2022/09/14 11:52:30;;;;;;;;;;;23.00;51.10;;;20.96;57.33;100113.66;12238627;19;19939;-88
2022/09/14 11:56:32;;;;;;;;;;;23.10;51.50;;;21.41;56.92;100176.03;12250286;19;20238;-86
2022/09/14 12:00:45;;;;;;;;;;;23.10;50.70;;;21.51;57.30;100175.84;12252476;19;19919;-87
2022/09/14 12:05:05;;;;;;;;;;;23.20;51.20;;;21.60;57.07;100173.00;12258622;19;19967;-86
2022/09/14 12:09:15;;;;;;;;;;;23.20;51.10;;;21.69;56.92;100157.88;12251224;19;19919;-87
2022/09/14 12:13:21;;;;;;;;;;;23.30;50.90;;;21.18;56.52;100061.69;12236493;19;19927;-86
2022/09/14 12:17:33;;;;;;;;;;;23.40;50.40;;;21.27;56.85;100063.31;12252466;19;19971;-87
2022/09/14 12:21:35;;;;;;;;;;;23.50;50.40;;;21.78;56.67;100145.38;12258956;19;19949;-87
2022/09/14 12:25:38;;;;;;;;;;;23.50;50.30;;;21.78;56.50;100146.19;12257816;19;19915;-87
2022/09/14 12:29:39;;;;;;;;;;;23.50;50.30;;;21.26;56.55;100063.50;12258360;19;19928;-86
2022/09/14 12:33:42;;;;;;;;;;;23.50;50.50;;;21.58;56.46;100119.19;12252716;19;19914;-87
2022/09/14 12:37:44;;;;;;;;;;;23.60;50.40;;;21.34;56.35;100068.78;12259716;19;19911;-86
2022/09/14 12:41:46;;;;;;;;;;;23.50;50.50;;;21.81;56.76;100151.16;12255391;19;19915;-86
2022/09/14 12:45:50;;;;;;;;;;;23.50;50.20;;;21.78;56.56;100146.19;12256864;19;19978;-86
2022/09/14 12:49:53;;;;;;;;;;;23.70;50.30;;;21.77;56.21;100154.38;12254278;19;19915;-87
2022/09/14 12:53:59;;;;;;;;;;;23.80;50.30;;;21.74;56.35;100136.06;12251340;19;19922;-87
2022/09/14 12:58:29;;;;;;;;;;;23.50;50.20;;;21.75;56.43;100135.91;12248052;19;20287;-86
2022/09/14 13:02:59;;;;;;;;;;;23.50;50.30;;;21.74;56.43;100128.94;12247705;19;19989;-86
2022/09/14 13:07:04;;;;;;;;;;;23.50;50.30;;;21.81;56.36;100124.59;12252048;19;19986;-87
2022/09/14 13:11:06;;;;;;;;;;;23.50;50.60;;;21.92;56.09;100120.72;12249669;19;19915;-86
2022/09/14 13:15:17;;;;;;;;;;;23.60;50.20;;;21.92;56.39;100127.88;12252879;19;19927;-87
2022/09/14 13:19:24;;;;;;;;;;;23.60;50.10;;;21.92;56.31;100112.75;12253097;19;19927;-88
2022/09/14 13:23:47;;;;;;;;;;;23.70;50.00;;;21.94;55.99;100097.44;12248741;19;20575;-87
2022/09/14 13:27:48;;;;;;;;;;;23.60;49.90;;;21.83;56.20;100084.56;12258180;19;19927;-88
2022/09/14 13:31:50;;;;;;;;;;;23.60;49.80;;;21.78;56.00;100073.59;12264446;19;19926;-88
2022/09/14 13:35:54;;;;;;;;;;;23.60;50.10;;;21.54;55.82;100026.72;12258907;19;20314;-87
2022/09/14 13:39:56;;;;;;;;;;;23.80;50.10;;;21.48;56.17;100017.59;12261490;19;19915;-87
2022/09/14 13:43:58;;;;;;;;;;;23.60;50.40;;;21.75;56.09;100047.38;12248951;19;19951;-85
2022/09/14 13:48:00;;;;;;;;;;;23.50;50.10;;;21.52;55.59;100007.44;12255661;19;19968;-86
2022/09/14 13:52:23;;;;;;;;;;;23.60;50.00;;;21.95;55.75;100074.34;12250270;19;20400;-86
2022/09/14 13:56:29;;;;;;;;;;;23.60;50.00;;;21.91;55.91;100070.41;12251955;19;19943;-86
2022/09/14 14:00:33;;;;;;;;;;;23.70;50.10;;;21.85;55.58;100071.91;12252079;19;19923;-87
2022/09/14 14:04:36;;;;;;;;;;;23.60;50.00;;;21.89;55.74;100070.56;12250214;19;19923;-85
2022/09/14 14:08:37;;;;;;;;;;;23.60;50.00;;;21.69;55.79;100032.13;12250652;19;20336;-87
2022/09/14 14:12:41;;;;;;;;;;;23.60;50.10;;;21.69;55.62;100030.31;12246438;19;19926;-85
2022/09/14 14:17:27;;;;;;;;;;;23.60;49.80;;;21.79;55.75;100057.50;12251955;19;19915;-87
2022/09/14 14:21:31;;;;;;;;;;;23.50;49.70;;;21.68;55.50;100046.41;12248605;19;20258;-86
2022/09/14 14:25:40;;;;;;;;;;;23.50;49.60;;;21.71;55.80;100044.25;12247860;19;19939;-87
2022/09/14 14:29:43;;;;;;;;;;;23.70;49.70;;;21.29;55.76;99978.97;12249618;19;19923;-86
2022/09/14 14:33:50;;;;;;;;;;;23.50;50.10;;;21.72;55.27;100053.06;12247335;19;19941;-86
2022/09/14 14:37:51;;;;;;;;;;;23.50;50.00;;;21.72;55.26;100034.44;12252365;19;19932;-84
2022/09/14 14:41:53;;;;;;;;;;;23.50;50.10;;;21.71;55.70;100035.44;12247447;19;20366;-86
2022/09/14 14:45:57;;;;;;;;;;;23.40;49.80;;;21.70;55.44;100041.75;12249885;19;20583;-86
2022/09/14 14:49:59;;;;;;;;;;;23.50;49.70;;;21.67;55.43;100042.94;12249713;19;20308;-86
2022/09/14 14:54:01;;;;;;;;;;;23.40;49.80;;;21.67;55.55;100044.75;12248030;19;19907;-85
2022/09/14 14:58:06;;;;;;;;;;;23.40;49.90;;;21.49;55.22;100024.56;12245061;19;19911;-85
2022/09/14 15:02:08;;;;;;;;;;;23.60;50.00;;;21.35;55.45;99991.56;12243535;19;19990;-86
2022/09/14 15:06:22;;;;;;;;;;;23.60;50.10;;;21.68;55.19;100038.44;12248870;19;20569;-85
2022/09/14 15:10:25;;;;;;;;;;;23.40;49.90;;;21.10;55.45;99944.88;12246555;19;20257;-86
2022/09/14 15:14:26;;;;;;;;;;;23.60;50.00;;;21.38;55.27;99982.44;12243129;19;19978;-86
2022/09/14 15:18:28;;;;;;;;;;;23.40;49.90;;;21.64;55.42;100024.69;12247665;19;20014;-85
2022/09/14 15:22:29;;;;;;;;;;;23.40;50.00;;;21.52;55.05;100002.13;12247034;19;19935;-86
2022/09/14 15:26:30;;;;;;;;;;;23.50;50.00;;;21.60;55.39;100018.91;12246694;19;19919;-85
2022/09/14 15:30:36;;;;;;;;;;;23.30;50.10;;;21.46;55.48;99992.22;12249656;19;20521;-85
2022/09/14 15:34:37;;;;;;;;;;;23.30;49.90;;;21.56;55.35;100020.22;12250886;19;19910;-86
2022/09/14 15:38:39;;;;;;;;;;;23.30;50.00;;;21.03;55.16;99942.06;12249669;19;19918;-85
2022/09/14 15:42:41;;;;;;;;;;;23.50;50.00;;;21.36;55.33;99992.38;12247809;19;19918;-87
2022/09/14 15:46:45;;;;;;;;;;;23.50;50.00;;;21.06;55.38;99951.50;12250435;19;19903;-85
2022/09/14 15:50:47;;;;;;;;;;;23.50;50.00;;;21.10;55.30;99963.47;12246756;19;19923;-86
2022/09/14 15:54:49;;;;;;;;;;;23.20;49.90;;;21.09;55.36;99965.28;12259939;19;19939;-86
2022/09/14 15:58:51;;;;;;;;;;;23.20;50.00;;;20.87;54.83;99934.16;12260943;19;19930;-87
2022/09/14 16:02:52;;;;;;;;;;;23.40;50.20;;;20.97;55.36;99954.19;12256052;19;19915;-86
2022/09/14 16:06:54;;;;;;;;;;;23.00;49.90;;;20.60;55.15;99904.38;12259766;19;19939;-86
2022/09/14 16:10:57;;;;;;;;;;;23.10;50.00;;;20.71;54.82;99922.63;12258514;19;19947;-86
2022/09/14 16:14:59;;;;;;;;;;;23.00;49.90;;;21.28;55.32;100025.13;12260868;19;20354;-85
2022/09/14 16:19:10;;;;;;;;;;;23.00;49.90;;;21.24;54.86;100026.47;12257950;19;20337;-86
2022/09/14 16:23:11;;;;;;;;;;;22.90;49.90;;;21.20;55.27;100026.00;12254333;19;19984;-86
2022/09/14 16:27:13;;;;;;;;;;;23.10;50.00;;;20.76;54.77;99962.72;12259228;19;19950;-86
2022/09/14 16:31:17;;;;;;;;;;;23.10;50.00;;;21.14;55.13;100026.69;12257037;19;19918;-86
2022/09/14 16:35:19;;;;;;;;;;;22.80;50.00;;;21.09;54.96;100007.78;12257121;19;20291;-86
2022/09/14 16:39:23;;;;;;;;;;;22.90;50.10;;;21.11;55.28;100007.59;12257811;19;19919;-87
2022/09/14 16:43:26;;;;;;;;;;;22.80;50.10;;;21.10;55.13;100020.03;12251093;19;19939;-86
2022/09/14 16:47:28;;;;;;;;;;;22.80;50.20;;;21.10;55.24;100020.03;12257286;19;19915;-86
2022/09/14 16:51:29;;;;;;;;;;;23.00;50.30;;;20.98;54.82;100010.75;12252720;19;19915;-86
2022/09/14 16:55:31;;;;;;;;;;;23.00;50.30;;;20.68;55.15;99961.91;12254189;19;19915;-87
2022/09/14 16:59:32;;;;;;;;;;;22.80;50.30;;;20.93;55.20;100002.50;12253602;19;20403;-85
2022/09/14 17:03:35;;;;;;;;;;;22.70;50.20;;;20.93;54.84;100021.91;12250006;19;20279;-86
2022/09/14 17:07:36;;;;;;;;;;;23.00;50.30;;;20.67;55.03;99978.84;12254505;19;19911;-86
2022/09/14 17:11:39;;;;;;;;;;;22.70;50.30;;;20.72;55.21;99992.44;12253535;19;19992;-85
2022/09/14 17:15:41;;;;;;;;;;;22.90;50.40;;;20.82;55.21;100000.19;12255624;19;19927;-87
2022/09/14 17:19:43;;;;;;;;;;;22.60;50.30;;;20.14;54.94;99906.75;12257464;19;20030;-86
2022/09/14 17:23:45;;;;;;;;;;;22.50;50.30;;;20.73;55.27;100005.50;12255193;19;19919;-86
2022/09/14 17:27:46;;;;;;;;;;;22.50;50.40;;;20.65;54.79;99994.91;12259969;19;19911;-88
2022/09/14 17:31:49;;;;;;;;;;;22.40;50.40;;;20.46;55.02;99972.19;12259116;19;19924;-86
2022/09/14 17:35:52;;;;;;;;;;;22.30;50.40;;;20.45;55.06;99981.16;12256581;19;19931;-87
2022/09/14 17:39:54;;;;;;;;;;;22.30;50.50;;;20.45;54.75;99985.63;12253272;19;19923;-87
2022/09/14 17:43:58;;;;;;;;;;;22.30;50.50;;;20.26;55.09;99970.88;12249317;19;19915;-86
2022/09/14 17:48:00;;;;;;;;;;;22.10;50.50;;;20.17;55.08;99974.50;12255499;19;19937;-86
2022/09/14 17:52:01;;;;;;;;;;;22.30;50.70;;;20.08;55.14;99963.91;12254007;19;19918;-89
2022/09/14 17:56:05;;;;;;;;;;;22.00;50.70;;;20.14;55.06;99985.44;12252237;19;19914;-87
2022/09/14 18:00:07;;;;;;;;;;;22.00;50.70;;;20.08;55.52;99982.47;12255130;19;19918;-88
2022/09/14 18:04:10;;;;;;;;;;;21.90;50.80;;;19.82;55.34;99944.66;12250488;19;19943;-87
2022/09/14 18:08:12;;;;;;;;;;;21.90;50.80;;;20.11;55.19;99990.09;12255108;19;19919;-86
2022/09/14 18:12:14;;;;;;;;;;;21.90;50.90;;;19.98;55.17;99957.09;12249346;19;19919;-87
2022/09/14 18:16:17;;;;;;;;;;;21.80;50.80;;;20.01;55.49;99970.88;12254446;19;19930;-88
2022/09/14 18:20:18;;;;;;;;;;;21.80;50.80;;;19.95;55.00;99970.69;12252527;19;19926;-87
2022/09/14 18:24:20;;;;;;;;;;;21.60;50.70;;;19.81;55.12;99969.50;12250384;19;19939;-87